sensor_id;sensor_type;location;lat;lon;timestamp;P1;durP1;ratioP1;P2;durP2;ratioP2
78891;SDS011;68368;51.728;5.248;2023-11-19T00:00:04;5.80;;;2.90;;
78891;SDS011;68368;51.728;5.248;2023-11-19T00:02:10;6.50;;;3.60;;
78891;SDS011;68368;51.728;5.248;2023-11-19T00:04:15;5.60;;;2.80;;
78891;SDS011;68368;51.728;5.248;2023-11-19T00:06:20;5.60;;;3.10;;
78891;SDS011;68368;51.728;5.248;2023-11-19T00:08:25;8.40;;;2.90;;
78891;SDS011;68368;51.728;5.248;2023-11-19T00:10:33;7.70;;;3.10;;
78891;SDS011;68368;51.728;5.248;2023-11-19T00:12:40;8.60;;;3.20;;
78891;SDS011;68368;51.728;5.248;2023-11-19T00:14:47;6.20;;;2.30;;
78891;SDS011;68368;51.728;5.248;2023-11-19T00:16:52;7.60;;;3.10;;
78891;SDS011;68368;51.728;5.248;2023-11-19T00:18:56;7.40;;;3.10;;
78891;SDS011;68368;51.728;5.248;2023-11-19T00:21:01;6.70;;;3.20;;
78891;SDS011;68368;51.728;5.248;2023-11-19T00:23:09;9.20;;;3.70;;
78891;SDS011;68368;51.728;5.248;2023-11-19T00:25:14;8.70;;;2.50;;
78891;SDS011;68368;51.728;5.248;2023-11-19T00:27:20;7.90;;;2.80;;
78891;SDS011;68368;51.728;5.248;2023-11-19T00:29:24;7.80;;;2.90;;
78891;SDS011;68368;51.728;5.248;2023-11-19T00:31:29;10.10;;;2.90;;
78891;SDS011;68368;51.728;5.248;2023-11-19T00:33:34;11.60;;;3.10;;
78891;SDS011;68368;51.728;5.248;2023-11-19T00:35:39;9.70;;;3.80;;
78891;SDS011;68368;51.728;5.248;2023-11-19T00:37:44;10.70;;;2.90;;
78891;SDS011;68368;51.728;5.248;2023-11-19T00:39:49;6.90;;;2.30;;
78891;SDS011;68368;51.728;5.248;2023-11-19T00:41:56;8.30;;;2.30;;
78891;SDS011;68368;51.728;5.248;2023-11-19T00:44:01;10.20;;;2.40;;
78891;SDS011;68368;51.728;5.248;2023-11-19T00:46:08;7.80;;;2.30;;
78891;SDS011;68368;51.728;5.248;2023-11-19T00:48:13;7.20;;;2.20;;
78891;SDS011;68368;51.728;5.248;2023-11-19T00:50:18;12.50;;;2.90;;
78891;SDS011;68368;51.728;5.248;2023-11-19T00:52:23;10.70;;;3.30;;
78891;SDS011;68368;51.728;5.248;2023-11-19T00:54:30;12.90;;;2.90;;
78891;SDS011;68368;51.728;5.248;2023-11-19T00:56:34;7.80;;;2.20;;
78891;SDS011;68368;51.728;5.248;2023-11-19T00:58:39;9.00;;;2.20;;
78891;SDS011;68368;51.728;5.248;2023-11-19T01:00:44;7.50;;;2.20;;
78891;SDS011;68368;51.728;5.248;2023-11-19T01:02:49;10.80;;;3.10;;
78891;SDS011;68368;51.728;5.248;2023-11-19T01:04:54;10.80;;;2.60;;
78891;SDS011;68368;51.728;5.248;2023-11-19T01:06:59;8.50;;;2.70;;
78891;SDS011;68368;51.728;5.248;2023-11-19T01:09:05;12.10;;;2.60;;
78891;SDS011;68368;51.728;5.248;2023-11-19T01:11:11;10.50;;;2.00;;
78891;SDS011;68368;51.728;5.248;2023-11-19T01:13:24;13.60;;;2.70;;
78891;SDS011;68368;51.728;5.248;2023-11-19T01:15:29;11.20;;;2.10;;
78891;SDS011;68368;51.728;5.248;2023-11-19T01:17:34;11.40;;;2.30;;
78891;SDS011;68368;51.728;5.248;2023-11-19T01:19:39;13.30;;;2.30;;
78891;SDS011;68368;51.728;5.248;2023-11-19T01:21:44;9.60;;;2.40;;
78891;SDS011;68368;51.728;5.248;2023-11-19T01:23:51;11.20;;;2.00;;
78891;SDS011;68368;51.728;5.248;2023-11-19T01:25:56;8.60;;;2.00;;
78891;SDS011;68368;51.728;5.248;2023-11-19T01:28:00;13.70;;;2.40;;
78891;SDS011;68368;51.728;5.248;2023-11-19T01:30:08;12.60;;;2.10;;
78891;SDS011;68368;51.728;5.248;2023-11-19T01:32:14;11.10;;;2.90;;
78891;SDS011;68368;51.728;5.248;2023-11-19T01:34:19;13.30;;;2.30;;
78891;SDS011;68368;51.728;5.248;2023-11-19T01:36:24;13.80;;;2.60;;
78891;SDS011;68368;51.728;5.248;2023-11-19T01:38:29;9.90;;;2.50;;
78891;SDS011;68368;51.728;5.248;2023-11-19T01:40:34;14.50;;;3.10;;
78891;SDS011;68368;51.728;5.248;2023-11-19T01:42:40;16.20;;;2.80;;
78891;SDS011;68368;51.728;5.248;2023-11-19T01:47:24;18.20;;;3.30;;
78891;SDS011;68368;51.728;5.248;2023-11-19T01:49:31;14.20;;;2.70;;
78891;SDS011;68368;51.728;5.248;2023-11-19T01:51:37;16.60;;;3.80;;
78891;SDS011;68368;51.728;5.248;2023-11-19T01:53:43;17.90;;;3.20;;
78891;SDS011;68368;51.728;5.248;2023-11-19T01:55:51;12.80;;;3.00;;
78891;SDS011;68368;51.728;5.248;2023-11-19T01:57:57;16.40;;;3.60;;
78891;SDS011;68368;51.728;5.248;2023-11-19T02:00:06;23.10;;;3.10;;
78891;SDS011;68368;51.728;5.248;2023-11-19T02:02:11;17.20;;;3.00;;
78891;SDS011;68368;51.728;5.248;2023-11-19T02:04:16;12.90;;;2.90;;
78891;SDS011;68368;51.728;5.248;2023-11-19T02:06:22;16.30;;;3.10;;
78891;SDS011;68368;51.728;5.248;2023-11-19T02:08:28;15.70;;;3.20;;
78891;SDS011;68368;51.728;5.248;2023-11-19T02:10:33;17.80;;;2.70;;
78891;SDS011;68368;51.728;5.248;2023-11-19T02:12:38;15.10;;;3.30;;
78891;SDS011;68368;51.728;5.248;2023-11-19T02:14:44;11.50;;;2.80;;
78891;SDS011;68368;51.728;5.248;2023-11-19T02:16:49;17.50;;;2.70;;
78891;SDS011;68368;51.728;5.248;2023-11-19T02:18:54;20.80;;;3.20;;
78891;SDS011;68368;51.728;5.248;2023-11-19T02:21:00;18.80;;;3.50;;
78891;SDS011;68368;51.728;5.248;2023-11-19T02:23:05;16.60;;;3.10;;
78891;SDS011;68368;51.728;5.248;2023-11-19T02:25:15;14.70;;;3.80;;
78891;SDS011;68368;51.728;5.248;2023-11-19T02:27:28;18.80;;;3.20;;
78891;SDS011;68368;51.728;5.248;2023-11-19T02:29:41;22.40;;;4.20;;
78891;SDS011;68368;51.728;5.248;2023-11-19T02:31:47;21.30;;;3.50;;
78891;SDS011;68368;51.728;5.248;2023-11-19T02:33:51;15.70;;;3.80;;
78891;SDS011;68368;51.728;5.248;2023-11-19T02:35:56;20.20;;;3.70;;
78891;SDS011;68368;51.728;5.248;2023-11-19T02:38:02;18.40;;;2.60;;
78891;SDS011;68368;51.728;5.248;2023-11-19T02:40:08;17.90;;;4.10;;
78891;SDS011;68368;51.728;5.248;2023-11-19T02:42:13;22.40;;;3.70;;
78891;SDS011;68368;51.728;5.248;2023-11-19T02:44:18;16.80;;;2.20;;
78891;SDS011;68368;51.728;5.248;2023-11-19T02:46:23;17.50;;;3.50;;
78891;SDS011;68368;51.728;5.248;2023-11-19T02:48:28;18.10;;;3.80;;
78891;SDS011;68368;51.728;5.248;2023-11-19T02:50:33;16.90;;;3.20;;
78891;SDS011;68368;51.728;5.248;2023-11-19T02:52:39;20.80;;;3.20;;
78891;SDS011;68368;51.728;5.248;2023-11-19T02:54:44;21.60;;;3.80;;
78891;SDS011;68368;51.728;5.248;2023-11-19T02:56:49;23.00;;;3.50;;
78891;SDS011;68368;51.728;5.248;2023-11-19T02:58:54;17.10;;;3.70;;
78891;SDS011;68368;51.728;5.248;2023-11-19T03:01:01;20.50;;;3.40;;
78891;SDS011;68368;51.728;5.248;2023-11-19T03:03:06;20.50;;;4.40;;
78891;SDS011;68368;51.728;5.248;2023-11-19T03:05:11;22.00;;;3.50;;
78891;SDS011;68368;51.728;5.248;2023-11-19T03:07:16;17.10;;;3.40;;
78891;SDS011;68368;51.728;5.248;2023-11-19T03:09:21;19.60;;;3.50;;
78891;SDS011;68368;51.728;5.248;2023-11-19T03:11:26;20.00;;;3.00;;
78891;SDS011;68368;51.728;5.248;2023-11-19T03:13:31;18.80;;;3.70;;
78891;SDS011;68368;51.728;5.248;2023-11-19T03:15:39;17.60;;;3.30;;
78891;SDS011;68368;51.728;5.248;2023-11-19T03:17:44;19.80;;;3.90;;
78891;SDS011;68368;51.728;5.248;2023-11-19T03:19:49;16.30;;;3.00;;
78891;SDS011;68368;51.728;5.248;2023-11-19T03:21:54;23.50;;;4.10;;
78891;SDS011;68368;51.728;5.248;2023-11-19T03:23:59;22.40;;;3.70;;
78891;SDS011;68368;51.728;5.248;2023-11-19T03:26:06;22.50;;;3.30;;
78891;SDS011;68368;51.728;5.248;2023-11-19T03:28:13;14.80;;;3.60;;
78891;SDS011;68368;51.728;5.248;2023-11-19T03:30:19;19.50;;;3.30;;
78891;SDS011;68368;51.728;5.248;2023-11-19T03:32:24;16.50;;;2.70;;
78891;SDS011;68368;51.728;5.248;2023-11-19T03:34:31;19.30;;;2.80;;
78891;SDS011;68368;51.728;5.248;2023-11-19T03:36:36;18.70;;;2.70;;
78891;SDS011;68368;51.728;5.248;2023-11-19T03:38:41;18.20;;;4.70;;
78891;SDS011;68368;51.728;5.248;2023-11-19T03:40:46;20.20;;;3.50;;
78891;SDS011;68368;51.728;5.248;2023-11-19T03:42:51;24.20;;;3.40;;
78891;SDS011;68368;51.728;5.248;2023-11-19T03:44:56;21.10;;;3.50;;
78891;SDS011;68368;51.728;5.248;2023-11-19T03:47:01;18.10;;;3.40;;
78891;SDS011;68368;51.728;5.248;2023-11-19T03:49:06;23.80;;;4.10;;
78891;SDS011;68368;51.728;5.248;2023-11-19T03:51:13;21.20;;;3.50;;
78891;SDS011;68368;51.728;5.248;2023-11-19T03:53:18;18.30;;;3.40;;
78891;SDS011;68368;51.728;5.248;2023-11-19T03:55:23;19.00;;;3.30;;
78891;SDS011;68368;51.728;5.248;2023-11-19T03:57:28;17.50;;;4.00;;
78891;SDS011;68368;51.728;5.248;2023-11-19T03:59:33;16.20;;;2.90;;
78891;SDS011;68368;51.728;5.248;2023-11-19T04:01:38;15.70;;;2.80;;
78891;SDS011;68368;51.728;5.248;2023-11-19T04:03:43;22.70;;;4.30;;
78891;SDS011;68368;51.728;5.248;2023-11-19T04:05:48;23.10;;;4.20;;
78891;SDS011;68368;51.728;5.248;2023-11-19T04:07:53;26.50;;;4.70;;
78891;SDS011;68368;51.728;5.248;2023-11-19T04:09:58;24.80;;;4.70;;
78891;SDS011;68368;51.728;5.248;2023-11-19T04:12:03;22.30;;;3.70;;
78891;SDS011;68368;51.728;5.248;2023-11-19T04:14:09;22.20;;;4.90;;
78891;SDS011;68368;51.728;5.248;2023-11-19T04:16:14;19.30;;;3.40;;
78891;SDS011;68368;51.728;5.248;2023-11-19T04:18:21;19.00;;;3.50;;
78891;SDS011;68368;51.728;5.248;2023-11-19T04:20:27;23.50;;;4.50;;
78891;SDS011;68368;51.728;5.248;2023-11-19T04:22:31;21.90;;;3.30;;
78891;SDS011;68368;51.728;5.248;2023-11-19T04:24:36;24.90;;;4.50;;
78891;SDS011;68368;51.728;5.248;2023-11-19T04:26:42;21.70;;;3.20;;
78891;SDS011;68368;51.728;5.248;2023-11-19T04:28:50;24.20;;;4.00;;
78891;SDS011;68368;51.728;5.248;2023-11-19T04:30:55;17.00;;;3.00;;
78891;SDS011;68368;51.728;5.248;2023-11-19T04:33:00;22.10;;;3.50;;
78891;SDS011;68368;51.728;5.248;2023-11-19T04:35:08;21.00;;;3.60;;
78891;SDS011;68368;51.728;5.248;2023-11-19T04:37:13;25.20;;;3.90;;
78891;SDS011;68368;51.728;5.248;2023-11-19T04:39:18;21.40;;;4.30;;
78891;SDS011;68368;51.728;5.248;2023-11-19T04:41:23;14.30;;;3.70;;
78891;SDS011;68368;51.728;5.248;2023-11-19T04:43:27;22.50;;;3.50;;
78891;SDS011;68368;51.728;5.248;2023-11-19T04:45:32;27.00;;;4.30;;
78891;SDS011;68368;51.728;5.248;2023-11-19T04:47:37;18.90;;;3.80;;
78891;SDS011;68368;51.728;5.248;2023-11-19T04:49:43;16.20;;;3.00;;
78891;SDS011;68368;51.728;5.248;2023-11-19T04:51:48;18.10;;;3.20;;
78891;SDS011;68368;51.728;5.248;2023-11-19T04:53:52;23.60;;;4.20;;
78891;SDS011;68368;51.728;5.248;2023-11-19T04:55:57;23.10;;;3.60;;
78891;SDS011;68368;51.728;5.248;2023-11-19T04:58:02;25.80;;;4.20;;
78891;SDS011;68368;51.728;5.248;2023-11-19T05:00:09;23.20;;;3.60;;
78891;SDS011;68368;51.728;5.248;2023-11-19T05:02:15;20.00;;;3.10;;
78891;SDS011;68368;51.728;5.248;2023-11-19T05:04:20;23.90;;;5.20;;
78891;SDS011;68368;51.728;5.248;2023-11-19T05:06:25;24.40;;;4.40;;
78891;SDS011;68368;51.728;5.248;2023-11-19T05:08:30;23.10;;;3.90;;
78891;SDS011;68368;51.728;5.248;2023-11-19T05:10:35;24.40;;;4.60;;
78891;SDS011;68368;51.728;5.248;2023-11-19T05:12:40;24.90;;;4.10;;
78891;SDS011;68368;51.728;5.248;2023-11-19T05:14:45;18.70;;;2.70;;
78891;SDS011;68368;51.728;5.248;2023-11-19T05:16:50;18.10;;;3.90;;
78891;SDS011;68368;51.728;5.248;2023-11-19T05:18:57;30.60;;;4.70;;
78891;SDS011;68368;51.728;5.248;2023-11-19T05:21:02;27.60;;;4.50;;
78891;SDS011;68368;51.728;5.248;2023-11-19T05:23:07;27.00;;;3.90;;
78891;SDS011;68368;51.728;5.248;2023-11-19T05:25:12;20.10;;;4.10;;
78891;SDS011;68368;51.728;5.248;2023-11-19T05:27:17;22.60;;;4.00;;
78891;SDS011;68368;51.728;5.248;2023-11-19T05:29:22;17.40;;;4.10;;
78891;SDS011;68368;51.728;5.248;2023-11-19T05:31:27;27.90;;;4.50;;
78891;SDS011;68368;51.728;5.248;2023-11-19T05:33:33;28.80;;;4.90;;
78891;SDS011;68368;51.728;5.248;2023-11-19T05:35:38;19.50;;;3.60;;
78891;SDS011;68368;51.728;5.248;2023-11-19T05:37:43;18.40;;;3.60;;
78891;SDS011;68368;51.728;5.248;2023-11-19T05:39:48;25.30;;;5.10;;
78891;SDS011;68368;51.728;5.248;2023-11-19T05:41:53;22.80;;;3.50;;
78891;SDS011;68368;51.728;5.248;2023-11-19T05:43:58;22.30;;;4.40;;
78891;SDS011;68368;51.728;5.248;2023-11-19T05:46:04;21.50;;;4.10;;
78891;SDS011;68368;51.728;5.248;2023-11-19T05:48:09;22.10;;;4.60;;
78891;SDS011;68368;51.728;5.248;2023-11-19T05:50:14;21.40;;;3.80;;
78891;SDS011;68368;51.728;5.248;2023-11-19T05:52:19;20.70;;;3.60;;
78891;SDS011;68368;51.728;5.248;2023-11-19T05:54:24;24.30;;;4.20;;
78891;SDS011;68368;51.728;5.248;2023-11-19T05:56:29;40.70;;;6.10;;
78891;SDS011;68368;51.728;5.248;2023-11-19T05:58:34;23.80;;;3.70;;
78891;SDS011;68368;51.728;5.248;2023-11-19T06:00:39;21.20;;;3.80;;
78891;SDS011;68368;51.728;5.248;2023-11-19T06:02:44;22.50;;;4.20;;
78891;SDS011;68368;51.728;5.248;2023-11-19T06:04:49;15.80;;;3.00;;
78891;SDS011;68368;51.728;5.248;2023-11-19T06:06:54;17.80;;;3.70;;
78891;SDS011;68368;51.728;5.248;2023-11-19T06:08:58;29.40;;;4.10;;
78891;SDS011;68368;51.728;5.248;2023-11-19T06:11:05;24.50;;;5.60;;
78891;SDS011;68368;51.728;5.248;2023-11-19T06:13:10;27.40;;;3.90;;
78891;SDS011;68368;51.728;5.248;2023-11-19T06:15:16;28.40;;;5.30;;
78891;SDS011;68368;51.728;5.248;2023-11-19T06:17:21;25.70;;;5.10;;
78891;SDS011;68368;51.728;5.248;2023-11-19T06:19:26;26.00;;;6.40;;
78891;SDS011;68368;51.728;5.248;2023-11-19T06:21:31;25.60;;;4.20;;
78891;SDS011;68368;51.728;5.248;2023-11-19T06:23:40;23.20;;;4.10;;
78891;SDS011;68368;51.728;5.248;2023-11-19T06:25:46;20.50;;;3.10;;
78891;SDS011;68368;51.728;5.248;2023-11-19T06:27:51;18.20;;;3.20;;
78891;SDS011;68368;51.728;5.248;2023-11-19T06:29:56;33.20;;;5.10;;
78891;SDS011;68368;51.728;5.248;2023-11-19T06:32:01;23.50;;;4.10;;
78891;SDS011;68368;51.728;5.248;2023-11-19T06:34:07;26.60;;;4.40;;
78891;SDS011;68368;51.728;5.248;2023-11-19T06:36:13;20.50;;;4.00;;
78891;SDS011;68368;51.728;5.248;2023-11-19T06:38:18;27.50;;;4.30;;
78891;SDS011;68368;51.728;5.248;2023-11-19T06:40:25;20.50;;;4.30;;
78891;SDS011;68368;51.728;5.248;2023-11-19T06:42:30;22.30;;;4.60;;
78891;SDS011;68368;51.728;5.248;2023-11-19T06:44:35;25.30;;;4.50;;
78891;SDS011;68368;51.728;5.248;2023-11-19T06:46:40;22.30;;;3.60;;
78891;SDS011;68368;51.728;5.248;2023-11-19T06:48:45;24.10;;;3.80;;
78891;SDS011;68368;51.728;5.248;2023-11-19T06:50:51;20.10;;;4.50;;
78891;SDS011;68368;51.728;5.248;2023-11-19T06:52:56;24.30;;;4.60;;
78891;SDS011;68368;51.728;5.248;2023-11-19T06:55:01;22.90;;;3.30;;
78891;SDS011;68368;51.728;5.248;2023-11-19T06:57:06;25.30;;;4.00;;
78891;SDS011;68368;51.728;5.248;2023-11-19T06:59:11;24.00;;;4.40;;
78891;SDS011;68368;51.728;5.248;2023-11-19T07:01:16;21.50;;;4.20;;
78891;SDS011;68368;51.728;5.248;2023-11-19T07:03:21;22.50;;;3.70;;
78891;SDS011;68368;51.728;5.248;2023-11-19T07:05:26;21.60;;;3.50;;
78891;SDS011;68368;51.728;5.248;2023-11-19T07:07:32;24.00;;;4.50;;
78891;SDS011;68368;51.728;5.248;2023-11-19T07:09:37;24.20;;;4.60;;
78891;SDS011;68368;51.728;5.248;2023-11-19T07:11:43;21.80;;;4.90;;
78891;SDS011;68368;51.728;5.248;2023-11-19T07:13:48;15.70;;;3.30;;
78891;SDS011;68368;51.728;5.248;2023-11-19T07:15:53;30.50;;;4.70;;
78891;SDS011;68368;51.728;5.248;2023-11-19T07:17:58;20.90;;;3.90;;
78891;SDS011;68368;51.728;5.248;2023-11-19T07:20:04;30.80;;;6.80;;
78891;SDS011;68368;51.728;5.248;2023-11-19T07:22:10;22.40;;;4.30;;
78891;SDS011;68368;51.728;5.248;2023-11-19T07:24:15;25.60;;;4.40;;
78891;SDS011;68368;51.728;5.248;2023-11-19T07:26:20;18.80;;;4.40;;
78891;SDS011;68368;51.728;5.248;2023-11-19T07:28:24;25.60;;;4.30;;
78891;SDS011;68368;51.728;5.248;2023-11-19T07:30:29;15.30;;;3.50;;
78891;SDS011;68368;51.728;5.248;2023-11-19T07:32:34;17.40;;;3.30;;
78891;SDS011;68368;51.728;5.248;2023-11-19T07:34:39;23.90;;;3.70;;
78891;SDS011;68368;51.728;5.248;2023-11-19T07:36:44;22.80;;;3.70;;
78891;SDS011;68368;51.728;5.248;2023-11-19T07:38:49;24.20;;;4.30;;
78891;SDS011;68368;51.728;5.248;2023-11-19T07:40:53;17.80;;;3.40;;
78891;SDS011;68368;51.728;5.248;2023-11-19T07:42:58;18.30;;;3.40;;
78891;SDS011;68368;51.728;5.248;2023-11-19T07:45:03;24.80;;;4.10;;
78891;SDS011;68368;51.728;5.248;2023-11-19T07:47:09;28.10;;;4.20;;
78891;SDS011;68368;51.728;5.248;2023-11-19T07:49:14;28.60;;;4.30;;
78891;SDS011;68368;51.728;5.248;2023-11-19T07:51:19;19.50;;;4.20;;
78891;SDS011;68368;51.728;5.248;2023-11-19T07:53:24;26.90;;;4.20;;
78891;SDS011;68368;51.728;5.248;2023-11-19T07:55:29;16.70;;;2.70;;
78891;SDS011;68368;51.728;5.248;2023-11-19T07:57:34;32.40;;;5.20;;
78891;SDS011;68368;51.728;5.248;2023-11-19T07:59:38;21.50;;;3.90;;
78891;SDS011;68368;51.728;5.248;2023-11-19T08:01:44;21.20;;;4.00;;
78891;SDS011;68368;51.728;5.248;2023-11-19T08:03:48;21.90;;;3.60;;
78891;SDS011;68368;51.728;5.248;2023-11-19T08:05:56;20.30;;;4.20;;
78891;SDS011;68368;51.728;5.248;2023-11-19T08:08:01;17.10;;;3.10;;
78891;SDS011;68368;51.728;5.248;2023-11-19T08:10:09;18.70;;;3.50;;
78891;SDS011;68368;51.728;5.248;2023-11-19T08:12:15;20.00;;;3.40;;
78891;SDS011;68368;51.728;5.248;2023-11-19T08:14:19;26.50;;;4.40;;
78891;SDS011;68368;51.728;5.248;2023-11-19T08:16:24;19.60;;;3.10;;
78891;SDS011;68368;51.728;5.248;2023-11-19T08:18:29;19.40;;;3.80;;
78891;SDS011;68368;51.728;5.248;2023-11-19T08:20:34;19.50;;;4.30;;
78891;SDS011;68368;51.728;5.248;2023-11-19T08:22:39;13.90;;;3.30;;
78891;SDS011;68368;51.728;5.248;2023-11-19T08:24:45;23.30;;;3.90;;
78891;SDS011;68368;51.728;5.248;2023-11-19T08:26:50;20.50;;;3.90;;
78891;SDS011;68368;51.728;5.248;2023-11-19T08:28:54;26.00;;;4.00;;
78891;SDS011;68368;51.728;5.248;2023-11-19T08:30:59;20.40;;;4.50;;
78891;SDS011;68368;51.728;5.248;2023-11-19T08:33:05;21.00;;;3.70;;
78891;SDS011;68368;51.728;5.248;2023-11-19T08:35:10;20.80;;;4.10;;
78891;SDS011;68368;51.728;5.248;2023-11-19T08:37:15;21.20;;;3.90;;
78891;SDS011;68368;51.728;5.248;2023-11-19T08:39:20;22.10;;;4.00;;
78891;SDS011;68368;51.728;5.248;2023-11-19T08:41:25;23.20;;;4.60;;
78891;SDS011;68368;51.728;5.248;2023-11-19T08:43:29;22.90;;;5.40;;
78891;SDS011;68368;51.728;5.248;2023-11-19T08:45:34;25.30;;;4.40;;
78891;SDS011;68368;51.728;5.248;2023-11-19T08:47:39;23.80;;;4.30;;
78891;SDS011;68368;51.728;5.248;2023-11-19T08:49:44;25.10;;;3.90;;
78891;SDS011;68368;51.728;5.248;2023-11-19T08:51:49;21.40;;;3.90;;
78891;SDS011;68368;51.728;5.248;2023-11-19T08:53:54;18.60;;;4.00;;
78891;SDS011;68368;51.728;5.248;2023-11-19T08:55:59;20.90;;;3.80;;
78891;SDS011;68368;51.728;5.248;2023-11-19T08:58:04;32.00;;;4.40;;
78891;SDS011;68368;51.728;5.248;2023-11-19T09:00:11;21.70;;;4.00;;
78891;SDS011;68368;51.728;5.248;2023-11-19T09:02:16;20.30;;;3.60;;
78891;SDS011;68368;51.728;5.248;2023-11-19T09:04:21;18.50;;;4.00;;
78891;SDS011;68368;51.728;5.248;2023-11-19T09:06:26;19.60;;;3.40;;
78891;SDS011;68368;51.728;5.248;2023-11-19T09:08:31;20.30;;;4.60;;
78891;SDS011;68368;51.728;5.248;2023-11-19T09:10:36;22.30;;;3.90;;
78891;SDS011;68368;51.728;5.248;2023-11-19T09:12:41;24.90;;;3.90;;
78891;SDS011;68368;51.728;5.248;2023-11-19T09:14:46;20.70;;;3.80;;
78891;SDS011;68368;51.728;5.248;2023-11-19T09:16:51;19.70;;;3.90;;
78891;SDS011;68368;51.728;5.248;2023-11-19T09:18:56;23.40;;;4.40;;
78891;SDS011;68368;51.728;5.248;2023-11-19T09:21:00;32.10;;;5.10;;
78891;SDS011;68368;51.728;5.248;2023-11-19T09:23:05;20.50;;;3.70;;
78891;SDS011;68368;51.728;5.248;2023-11-19T09:25:10;18.20;;;4.00;;
78891;SDS011;68368;51.728;5.248;2023-11-19T09:27:15;20.10;;;3.90;;
78891;SDS011;68368;51.728;5.248;2023-11-19T09:29:20;20.50;;;3.80;;
78891;SDS011;68368;51.728;5.248;2023-11-19T09:31:28;23.20;;;4.10;;
78891;SDS011;68368;51.728;5.248;2023-11-19T09:33:33;23.70;;;5.10;;
78891;SDS011;68368;51.728;5.248;2023-11-19T09:35:39;22.40;;;4.40;;
78891;SDS011;68368;51.728;5.248;2023-11-19T09:37:45;26.40;;;5.30;;
78891;SDS011;68368;51.728;5.248;2023-11-19T09:39:50;20.90;;;3.40;;
78891;SDS011;68368;51.728;5.248;2023-11-19T09:41:55;14.60;;;3.10;;
78891;SDS011;68368;51.728;5.248;2023-11-19T09:44:00;16.10;;;3.10;;
78891;SDS011;68368;51.728;5.248;2023-11-19T09:46:07;19.60;;;4.10;;
78891;SDS011;68368;51.728;5.248;2023-11-19T09:48:15;13.60;;;3.50;;
78891;SDS011;68368;51.728;5.248;2023-11-19T09:50:22;29.10;;;4.60;;
78891;SDS011;68368;51.728;5.248;2023-11-19T09:52:27;33.20;;;4.60;;
78891;SDS011;68368;51.728;5.248;2023-11-19T09:54:31;20.50;;;3.60;;
78891;SDS011;68368;51.728;5.248;2023-11-19T09:56:36;20.70;;;3.60;;
78891;SDS011;68368;51.728;5.248;2023-11-19T09:58:44;18.30;;;3.20;;
78891;SDS011;68368;51.728;5.248;2023-11-19T10:00:49;19.60;;;4.30;;
78891;SDS011;68368;51.728;5.248;2023-11-19T10:02:54;21.40;;;3.90;;
78891;SDS011;68368;51.728;5.248;2023-11-19T10:04:59;18.30;;;3.10;;
78891;SDS011;68368;51.728;5.248;2023-11-19T10:07:09;29.10;;;4.20;;
78891;SDS011;68368;51.728;5.248;2023-11-19T10:09:15;18.10;;;4.20;;
78891;SDS011;68368;51.728;5.248;2023-11-19T10:11:21;22.00;;;4.20;;
78891;SDS011;68368;51.728;5.248;2023-11-19T10:13:31;18.70;;;3.60;;
78891;SDS011;68368;51.728;5.248;2023-11-19T10:15:38;24.80;;;4.40;;
78891;SDS011;68368;51.728;5.248;2023-11-19T10:17:43;22.00;;;3.90;;
78891;SDS011;68368;51.728;5.248;2023-11-19T10:19:48;17.70;;;3.60;;
78891;SDS011;68368;51.728;5.248;2023-11-19T10:21:53;16.60;;;3.50;;
78891;SDS011;68368;51.728;5.248;2023-11-19T10:23:58;19.10;;;3.20;;
78891;SDS011;68368;51.728;5.248;2023-11-19T10:26:05;21.70;;;3.80;;
78891;SDS011;68368;51.728;5.248;2023-11-19T10:28:11;17.30;;;3.80;;
78891;SDS011;68368;51.728;5.248;2023-11-19T10:30:21;20.00;;;4.10;;
78891;SDS011;68368;51.728;5.248;2023-11-19T10:32:27;27.70;;;4.50;;
78891;SDS011;68368;51.728;5.248;2023-11-19T10:34:32;19.60;;;4.00;;
78891;SDS011;68368;51.728;5.248;2023-11-19T10:36:40;15.80;;;3.30;;
78891;SDS011;68368;51.728;5.248;2023-11-19T10:38:53;20.20;;;3.50;;
78891;SDS011;68368;51.728;5.248;2023-11-19T10:40:59;22.40;;;3.80;;
78891;SDS011;68368;51.728;5.248;2023-11-19T10:43:05;18.00;;;3.60;;
78891;SDS011;68368;51.728;5.248;2023-11-19T10:45:22;19.50;;;4.10;;
78891;SDS011;68368;51.728;5.248;2023-11-19T10:47:27;23.60;;;3.80;;
78891;SDS011;68368;51.728;5.248;2023-11-19T10:49:33;17.90;;;4.00;;
78891;SDS011;68368;51.728;5.248;2023-11-19T10:51:38;16.40;;;3.20;;
78891;SDS011;68368;51.728;5.248;2023-11-19T10:53:51;21.40;;;4.40;;
78891;SDS011;68368;51.728;5.248;2023-11-19T10:56:01;22.40;;;4.00;;
78891;SDS011;68368;51.728;5.248;2023-11-19T10:58:10;23.20;;;4.20;;
78891;SDS011;68368;51.728;5.248;2023-11-19T11:00:17;26.10;;;3.80;;
78891;SDS011;68368;51.728;5.248;2023-11-19T11:02:25;23.30;;;4.40;;
78891;SDS011;68368;51.728;5.248;2023-11-19T11:04:33;20.90;;;3.90;;
78891;SDS011;68368;51.728;5.248;2023-11-19T11:06:43;18.20;;;3.10;;
78891;SDS011;68368;51.728;5.248;2023-11-19T11:08:48;19.10;;;5.00;;
78891;SDS011;68368;51.728;5.248;2023-11-19T11:10:55;17.20;;;3.60;;
78891;SDS011;68368;51.728;5.248;2023-11-19T11:13:00;21.70;;;4.40;;
78891;SDS011;68368;51.728;5.248;2023-11-19T11:15:09;21.90;;;4.50;;
78891;SDS011;68368;51.728;5.248;2023-11-19T11:17:16;16.20;;;3.30;;
78891;SDS011;68368;51.728;5.248;2023-11-19T11:19:24;21.70;;;4.30;;
78891;SDS011;68368;51.728;5.248;2023-11-19T11:21:29;15.50;;;2.90;;
78891;SDS011;68368;51.728;5.248;2023-11-19T11:27:08;15.10;;;3.00;;
78891;SDS011;68368;51.728;5.248;2023-11-19T11:29:40;16.70;;;3.00;;
78891;SDS011;68368;51.728;5.248;2023-11-19T11:31:54;12.30;;;2.30;;
78891;SDS011;68368;51.728;5.248;2023-11-19T11:34:24;11.90;;;2.10;;
78891;SDS011;68368;51.728;5.248;2023-11-19T11:36:47;13.30;;;2.50;;
78891;SDS011;68368;51.728;5.248;2023-11-19T11:39:00;11.20;;;2.40;;
78891;SDS011;68368;51.728;5.248;2023-11-19T11:41:20;16.60;;;2.70;;
78891;SDS011;68368;51.728;5.248;2023-11-19T11:43:46;17.70;;;3.60;;
78891;SDS011;68368;51.728;5.248;2023-11-19T11:45:52;11.70;;;2.60;;
78891;SDS011;68368;51.728;5.248;2023-11-19T11:48:13;10.00;;;2.70;;
78891;SDS011;68368;51.728;5.248;2023-11-19T11:50:20;13.60;;;3.40;;
78891;SDS011;68368;51.728;5.248;2023-11-19T11:52:26;11.90;;;2.30;;
78891;SDS011;68368;51.728;5.248;2023-11-19T11:54:31;18.50;;;3.80;;
78891;SDS011;68368;51.728;5.248;2023-11-19T11:56:38;20.90;;;3.70;;
78891;SDS011;68368;51.728;5.248;2023-11-19T11:58:42;13.10;;;2.90;;
78891;SDS011;68368;51.728;5.248;2023-11-19T12:00:49;13.40;;;3.20;;
78891;SDS011;68368;51.728;5.248;2023-11-19T12:02:57;13.80;;;2.50;;
78891;SDS011;68368;51.728;5.248;2023-11-19T12:05:08;14.10;;;3.10;;
78891;SDS011;68368;51.728;5.248;2023-11-19T12:07:16;14.00;;;3.10;;
78891;SDS011;68368;51.728;5.248;2023-11-19T12:09:21;17.70;;;4.10;;
78891;SDS011;68368;51.728;5.248;2023-11-19T12:11:27;15.40;;;3.10;;
78891;SDS011;68368;51.728;5.248;2023-11-19T12:13:52;12.60;;;2.90;;
78891;SDS011;68368;51.728;5.248;2023-11-19T12:16:11;14.40;;;3.20;;
78891;SDS011;68368;51.728;5.248;2023-11-19T12:18:16;16.30;;;3.00;;
78891;SDS011;68368;51.728;5.248;2023-11-19T12:20:26;14.80;;;3.20;;
78891;SDS011;68368;51.728;5.248;2023-11-19T12:24:35;17.90;;;3.70;;
78891;SDS011;68368;51.728;5.248;2023-11-19T12:26:41;20.10;;;2.70;;
78891;SDS011;68368;51.728;5.248;2023-11-19T12:28:58;18.30;;;2.80;;
78891;SDS011;68368;51.728;5.248;2023-11-19T12:31:10;19.40;;;3.90;;
78891;SDS011;68368;51.728;5.248;2023-11-19T12:33:15;19.30;;;4.00;;
78891;SDS011;68368;51.728;5.248;2023-11-19T12:35:20;15.60;;;3.10;;
78891;SDS011;68368;51.728;5.248;2023-11-19T12:37:26;21.40;;;4.90;;